createdAt,value
2018-06-16T00:00:26.570Z,990.61
2018-06-16T00:01:26.567Z,990.63
2018-06-16T00:02:26.565Z,990.62
2018-06-16T00:03:26.563Z,990.64
2018-06-16T00:04:26.574Z,990.67
2018-06-16T00:05:26.635Z,990.67
2018-06-16T00:06:26.657Z,990.65
2018-06-16T00:07:26.567Z,990.66
2018-06-16T00:08:26.563Z,990.66
2018-06-16T00:09:26.563Z,990.69
2018-06-16T00:10:26.568Z,990.7
2018-06-16T00:11:26.567Z,990.7
2018-06-16T00:12:26.568Z,990.69
2018-06-16T00:13:26.564Z,990.7
2018-06-16T00:14:26.564Z,990.69
2018-06-16T00:15:26.565Z,990.64
2018-06-16T00:16:26.564Z,990.74
2018-06-16T00:17:26.566Z,990.74
2018-06-16T00:18:26.566Z,990.74
2018-06-16T00:19:26.563Z,990.76
2018-06-16T00:20:26.562Z,990.76
2018-06-16T00:21:26.562Z,990.73
2018-06-16T00:22:26.629Z,990.71
2018-06-16T00:23:26.562Z,990.73
2018-06-16T00:24:26.563Z,990.72
2018-06-16T00:25:26.563Z,990.72
2018-06-16T00:26:26.561Z,990.7
2018-06-16T00:27:26.562Z,990.73
2018-06-16T00:28:26.573Z,990.72
2018-06-16T00:29:26.561Z,990.71
2018-06-16T00:30:26.560Z,990.72
2018-06-16T00:31:26.560Z,990.69
2018-06-16T00:32:26.562Z,990.67
2018-06-16T00:33:26.561Z,990.71
2018-06-16T00:34:26.560Z,990.68
2018-06-16T00:35:26.557Z,990.66
2018-06-16T00:36:26.563Z,990.7
2018-06-16T00:37:26.559Z,990.65
2018-06-16T00:38:26.560Z,990.66
2018-06-16T00:39:26.568Z,990.64
2018-06-16T00:40:26.564Z,990.64
2018-06-16T00:41:26.559Z,990.61
2018-06-16T00:42:26.567Z,990.61
2018-06-16T00:43:26.559Z,990.6
2018-06-16T00:44:26.559Z,990.64
2018-06-16T00:45:26.558Z,990.62
2018-06-16T00:46:26.558Z,990.61
2018-06-16T00:47:26.558Z,990.64
2018-06-16T00:48:26.560Z,990.58
2018-06-16T00:49:26.559Z,990.6
2018-06-16T00:50:26.561Z,990.65
2018-06-16T00:51:26.559Z,990.64
2018-06-16T00:52:26.558Z,990.63
2018-06-16T00:53:26.573Z,990.61
2018-06-16T00:54:26.558Z,990.62
2018-06-16T00:55:26.565Z,990.6
2018-06-16T00:56:26.556Z,990.61
2018-06-16T00:57:26.555Z,990.57
2018-06-16T00:58:26.557Z,990.58
2018-06-16T00:59:26.555Z,990.57
2018-06-16T01:00:26.564Z,990.61
2018-06-16T01:01:26.604Z,990.62
2018-06-16T01:02:26.552Z,990.64
2018-06-16T01:03:26.555Z,990.64
2018-06-16T01:04:26.551Z,990.65
2018-06-16T01:05:26.558Z,990.62
2018-06-16T01:06:26.553Z,990.62
2018-06-16T01:07:26.558Z,990.61
2018-06-16T01:08:26.552Z,990.62
2018-06-16T01:09:26.578Z,990.62
2018-06-16T01:10:26.590Z,990.61
2018-06-16T01:11:26.550Z,990.69
2018-06-16T01:12:26.551Z,990.63
2018-06-16T01:13:26.551Z,990.65
2018-06-16T01:14:26.551Z,990.67
2018-06-16T01:15:26.564Z,990.64
2018-06-16T01:16:26.550Z,990.64
2018-06-16T01:17:26.552Z,990.62
2018-06-16T01:18:26.552Z,990.65
2018-06-16T01:19:26.567Z,990.63
2018-06-16T01:20:26.554Z,990.69
2018-06-16T01:21:26.548Z,990.61
2018-06-16T01:22:26.548Z,990.67
2018-06-16T01:23:26.546Z,990.67
2018-06-16T01:24:26.553Z,990.62
2018-06-16T01:25:26.546Z,990.64
2018-06-16T01:26:26.544Z,990.6
2018-06-16T01:27:26.548Z,990.62
2018-06-16T01:28:26.547Z,990.61
2018-06-16T01:29:26.576Z,990.62
2018-06-16T01:30:26.550Z,990.57
2018-06-16T01:31:26.543Z,990.55
2018-06-16T01:32:26.545Z,990.58
2018-06-16T01:33:26.543Z,990.54
2018-06-16T01:34:26.545Z,990.51
2018-06-16T01:35:26.546Z,990.53
2018-06-16T01:36:26.561Z,990.54
2018-06-16T01:37:26.541Z,990.54
2018-06-16T01:38:26.552Z,990.51
2018-06-16T01:39:26.544Z,990.51
2018-06-16T01:40:26.539Z,990.47
2018-06-16T01:41:26.539Z,990.45
2018-06-16T01:42:28.994Z,990.47
2018-06-16T01:43:26.554Z,990.46
2018-06-16T01:44:26.535Z,990.46
2018-06-16T01:45:26.535Z,990.44
2018-06-16T01:46:26.540Z,990.44
2018-06-16T01:47:26.539Z,990.42
2018-06-16T01:48:26.535Z,990.45
2018-06-16T01:49:26.540Z,990.47
2018-06-16T01:50:26.800Z,990.42
2018-06-16T01:51:26.532Z,990.42
2018-06-16T01:52:26.534Z,990.47
2018-06-16T01:53:26.535Z,990.47
2018-06-16T01:54:26.536Z,990.5
2018-06-16T01:55:26.532Z,990.47
2018-06-16T01:56:26.528Z,990.45
2018-06-16T01:57:26.535Z,990.45
2018-06-16T01:58:26.530Z,990.41
2018-06-16T01:59:26.532Z,990.43
2018-06-16T02:00:26.531Z,990.44
2018-06-16T02:01:26.526Z,990.39
2018-06-16T02:02:26.527Z,990.39
2018-06-16T02:03:26.529Z,990.39
2018-06-16T02:04:26.529Z,990.36
2018-06-16T02:05:26.526Z,990.39
2018-06-16T02:06:26.526Z,990.42
2018-06-16T02:07:26.522Z,990.36
2018-06-16T02:08:26.525Z,990.37
2018-06-16T02:09:26.525Z,990.38
2018-06-16T02:10:26.525Z,990.37
2018-06-16T02:11:26.520Z,990.36
2018-06-16T02:12:26.533Z,990.36
2018-06-16T02:13:26.519Z,990.33
2018-06-16T02:14:26.520Z,990.36
2018-06-16T02:15:26.522Z,990.37
2018-06-16T02:16:26.520Z,990.38
2018-06-16T02:17:26.517Z,990.41
2018-06-16T02:18:26.518Z,990.36
2018-06-16T02:19:26.529Z,990.39
2018-06-16T02:20:26.522Z,990.4
2018-06-16T02:21:26.513Z,990.41
2018-06-16T02:22:26.513Z,990.36
2018-06-16T02:23:26.514Z,990.37
2018-06-16T02:24:26.511Z,990.41
2018-06-16T02:25:26.515Z,990.4
2018-06-16T02:26:26.511Z,990.33
2018-06-16T02:27:26.518Z,990.37
2018-06-16T02:28:26.513Z,990.39
2018-06-16T02:29:26.509Z,990.36
2018-06-16T02:30:26.520Z,990.42
2018-06-16T02:31:26.508Z,990.42
2018-06-16T02:32:26.521Z,990.38
2018-06-16T02:33:26.510Z,990.41
2018-06-16T02:34:26.517Z,990.45
2018-06-16T02:35:26.521Z,990.51
2018-06-16T02:36:26.500Z,990.46
2018-06-16T02:37:26.521Z,990.46
2018-06-16T02:38:26.513Z,990.47
2018-06-16T02:39:26.499Z,990.45
2018-06-16T02:40:26.501Z,990.47
2018-06-16T02:41:26.501Z,990.47
2018-06-16T02:42:26.498Z,990.45
2018-06-16T02:43:26.496Z,990.47
2018-06-16T02:44:26.506Z,990.48
2018-06-16T02:45:26.499Z,990.43
2018-06-16T02:46:26.496Z,990.47
2018-06-16T02:47:26.494Z,990.44
2018-06-16T02:48:26.491Z,990.51
2018-06-16T02:49:26.493Z,990.45
2018-06-16T02:50:26.602Z,990.42
2018-06-16T02:51:26.490Z,990.45
2018-06-16T02:52:26.517Z,990.39
2018-06-16T02:53:26.487Z,990.39
2018-06-16T02:54:26.495Z,990.38
2018-06-16T02:55:26.494Z,990.34
2018-06-16T02:56:26.483Z,990.39
2018-06-16T02:57:26.486Z,990.35
2018-06-16T02:58:26.481Z,990.31
2018-06-16T02:59:26.479Z,990.36
2018-06-16T03:00:26.479Z,990.33
2018-06-16T03:01:26.475Z,990.33
2018-06-16T03:02:26.476Z,990.32
2018-06-16T03:03:26.488Z,990.35
2018-06-16T03:04:26.481Z,990.29
2018-06-16T03:05:26.476Z,990.3
2018-06-16T03:06:26.475Z,990.34
2018-06-16T03:07:26.471Z,990.32
2018-06-16T03:08:26.468Z,990.35
2018-06-16T03:09:26.471Z,990.41
2018-06-16T03:10:26.467Z,990.38
2018-06-16T03:11:26.473Z,990.42
2018-06-16T03:12:26.461Z,990.4
2018-06-16T03:13:26.471Z,990.43
2018-06-16T03:14:26.461Z,990.41
2018-06-16T03:15:26.462Z,990.39
2018-06-16T03:16:26.472Z,990.43
2018-06-16T03:17:26.464Z,990.47
2018-06-16T03:18:26.465Z,990.44
2018-06-16T03:19:26.460Z,990.45
2018-06-16T03:20:26.463Z,990.43
2018-06-16T03:21:26.462Z,990.4
2018-06-16T03:22:26.458Z,990.45
2018-06-16T03:23:26.455Z,990.42
2018-06-16T03:24:26.450Z,990.47
2018-06-16T03:25:26.450Z,990.48
2018-06-16T03:26:26.448Z,990.41
2018-06-16T03:27:26.449Z,990.47
2018-06-16T03:28:26.447Z,990.48
2018-06-16T03:29:26.447Z,990.47
2018-06-16T03:30:26.463Z,990.43
2018-06-16T03:31:26.443Z,990.47
2018-06-16T03:32:26.443Z,990.48
2018-06-16T03:33:26.441Z,990.48
2018-06-16T03:34:26.439Z,990.48
2018-06-16T03:35:26.440Z,990.49
2018-06-16T03:36:26.497Z,990.53
2018-06-16T03:37:26.457Z,990.51
2018-06-16T03:38:26.446Z,990.5
2018-06-16T03:39:26.437Z,990.57
2018-06-16T03:40:26.443Z,990.56
2018-06-16T03:41:26.434Z,990.57
2018-06-16T03:42:26.436Z,990.56
2018-06-16T03:43:26.436Z,990.56
2018-06-16T03:44:26.437Z,990.56
2018-06-16T03:45:26.436Z,990.57
2018-06-16T03:46:26.432Z,990.53
2018-06-16T03:47:26.431Z,990.59
2018-06-16T03:48:26.431Z,990.61
2018-06-16T03:49:26.426Z,990.61
2018-06-16T03:50:26.427Z,990.63
2018-06-16T03:51:26.429Z,990.7
2018-06-16T03:52:26.425Z,990.72
2018-06-16T03:53:26.425Z,990.73
2018-06-16T03:54:26.440Z,990.73
2018-06-16T03:55:26.431Z,990.69
2018-06-16T03:56:26.423Z,990.69
2018-06-16T03:57:26.426Z,990.7
2018-06-16T03:58:26.425Z,990.74
2018-06-16T03:59:26.421Z,990.7
2018-06-16T04:00:26.422Z,990.69
2018-06-16T04:01:26.425Z,990.69
2018-06-16T04:02:26.423Z,990.75
2018-06-16T04:03:26.424Z,990.83
2018-06-16T04:04:26.427Z,990.8
2018-06-16T04:05:26.442Z,990.84
2018-06-16T04:06:26.427Z,990.86
2018-06-16T04:07:26.424Z,990.84
2018-06-16T04:08:26.424Z,990.83
2018-06-16T04:09:26.428Z,990.89
2018-06-16T04:10:26.428Z,990.86
2018-06-16T04:11:26.430Z,990.82
2018-06-16T04:12:26.443Z,990.86
2018-06-16T04:13:26.433Z,990.82
2018-06-16T04:14:26.432Z,990.9
2018-06-16T04:15:26.434Z,990.86
2018-06-16T04:16:26.435Z,990.87
2018-06-16T04:17:26.441Z,990.86
2018-06-16T04:18:26.440Z,990.83
2018-06-16T04:19:26.447Z,990.84
2018-06-16T04:20:26.455Z,990.82
2018-06-16T04:21:26.449Z,990.85
2018-06-16T04:22:26.453Z,990.79
2018-06-16T04:23:26.454Z,990.81
2018-06-16T04:24:26.453Z,990.82
2018-06-16T04:25:26.470Z,990.84
2018-06-16T04:26:26.461Z,990.83
2018-06-16T04:27:26.462Z,990.88
2018-06-16T04:28:26.463Z,990.89
2018-06-16T04:29:26.466Z,990.86
2018-06-16T04:30:26.469Z,990.85
2018-06-16T04:31:26.486Z,990.85
2018-06-16T04:32:26.474Z,990.85
2018-06-16T04:33:26.479Z,990.82
2018-06-16T04:34:26.496Z,990.84
2018-06-16T04:35:26.500Z,990.76
2018-06-16T04:36:26.504Z,990.66
2018-06-16T04:37:26.495Z,990.61
2018-06-16T04:38:26.498Z,990.6
2018-06-16T04:39:26.500Z,990.64
2018-06-16T04:40:26.506Z,990.69
2018-06-16T04:41:26.505Z,990.71
2018-06-16T04:42:26.508Z,990.69
2018-06-16T04:43:26.759Z,990.71
2018-06-16T04:44:26.513Z,990.67
2018-06-16T04:45:26.540Z,990.64
2018-06-16T04:46:26.523Z,990.68
2018-06-16T04:47:26.520Z,990.68
2018-06-16T04:48:26.527Z,990.83
2018-06-16T04:49:26.530Z,990.83
2018-06-16T04:50:26.532Z,990.81
2018-06-16T04:51:26.545Z,990.76
2018-06-16T04:52:26.549Z,990.72
2018-06-16T04:53:26.544Z,990.75
2018-06-16T04:54:26.545Z,990.8
2018-06-16T04:55:26.552Z,990.75
2018-06-16T04:56:26.556Z,990.55
2018-06-16T04:57:26.560Z,990.61
2018-06-16T04:58:26.560Z,990.6
2018-06-16T04:59:26.566Z,990.62
2018-06-16T05:00:26.576Z,990.6
2018-06-16T05:01:26.570Z,990.58
2018-06-16T05:02:26.592Z,990.58
2018-06-16T05:03:26.580Z,990.61
2018-06-16T05:04:26.579Z,990.63
2018-06-16T05:05:26.583Z,990.59
2018-06-16T05:06:26.587Z,990.64
2018-06-16T05:07:26.590Z,990.63
2018-06-16T05:08:26.590Z,990.63
2018-06-16T05:09:26.593Z,990.82
2018-06-16T05:10:26.596Z,990.87
2018-06-16T05:11:26.599Z,990.86
2018-06-16T05:12:26.626Z,990.88
2018-06-16T05:13:26.605Z,990.88
2018-06-16T05:14:26.608Z,990.82
2018-06-16T05:15:26.608Z,990.83
2018-06-16T05:16:26.638Z,990.78
2018-06-16T05:17:26.616Z,990.83
2018-06-16T05:18:26.631Z,990.77
2018-06-16T05:19:26.623Z,990.72
2018-06-16T05:20:26.635Z,990.73
2018-06-16T05:21:26.633Z,990.71
2018-06-16T05:22:26.635Z,990.75
2018-06-16T05:23:26.638Z,990.73
2018-06-16T05:24:26.644Z,990.75
2018-06-16T05:25:26.653Z,990.79
2018-06-16T05:26:26.650Z,990.76
2018-06-16T05:27:26.661Z,990.72
2018-06-16T05:28:26.667Z,990.75
2018-06-16T05:29:26.670Z,990.75
2018-06-16T05:30:26.676Z,990.74
2018-06-16T05:31:26.678Z,990.79
2018-06-16T05:32:26.680Z,990.75
2018-06-16T05:33:26.689Z,990.74
2018-06-16T05:34:26.692Z,990.71
2018-06-16T05:35:26.710Z,990.66
2018-06-16T05:36:26.704Z,990.69
2018-06-16T05:37:26.708Z,990.7
2018-06-16T05:38:26.821Z,990.69
2018-06-16T05:39:26.720Z,990.7
2018-06-16T05:40:26.732Z,990.73
2018-06-16T05:41:26.732Z,990.67
2018-06-16T05:42:26.748Z,990.67
2018-06-16T05:43:26.746Z,990.69
2018-06-16T05:44:26.752Z,990.66
2018-06-16T05:45:26.754Z,990.63
2018-06-16T05:46:26.762Z,990.62
2018-06-16T05:47:26.770Z,990.67
2018-06-16T05:48:26.774Z,990.66
2018-06-16T05:49:26.781Z,990.65
2018-06-16T05:50:26.799Z,990.68
2018-06-16T05:51:26.798Z,990.7
2018-06-16T05:52:26.802Z,990.68
2018-06-16T05:53:26.820Z,990.7
2018-06-16T05:54:26.818Z,990.7
2018-06-16T05:55:26.820Z,990.71
2018-06-16T05:56:26.825Z,990.71
2018-06-16T05:57:26.832Z,990.71
2018-06-16T05:58:26.838Z,990.7
2018-06-16T05:59:26.845Z,990.71
2018-06-16T06:00:26.875Z,990.72
2018-06-16T06:01:26.860Z,990.74
2018-06-16T06:02:26.865Z,990.77
2018-06-16T06:03:26.870Z,990.73
2018-06-16T06:04:26.878Z,990.73
2018-06-16T06:05:26.885Z,990.72
2018-06-16T06:06:26.891Z,990.76
2018-06-16T06:07:26.895Z,990.73
2018-06-16T06:08:26.903Z,990.74
2018-06-16T06:09:26.911Z,990.74
2018-06-16T06:10:26.960Z,990.75
2018-06-16T06:11:26.920Z,990.74
2018-06-16T06:12:26.929Z,990.74
2018-06-16T06:13:26.938Z,990.76
2018-06-16T06:14:26.947Z,990.8
2018-06-16T06:15:26.964Z,990.8
2018-06-16T06:16:26.958Z,990.76
2018-06-16T06:17:26.963Z,990.79
2018-06-16T06:18:26.970Z,990.81
2018-06-16T06:19:26.977Z,990.78
2018-06-16T06:20:26.993Z,990.77
2018-06-16T06:21:26.992Z,990.79
2018-06-16T06:22:27.012Z,990.81
2018-06-16T06:23:27.003Z,990.78
2018-06-16T06:24:27.017Z,990.75
2018-06-16T06:25:27.028Z,990.77
2018-06-16T06:26:27.034Z,990.77
2018-06-16T06:27:27.035Z,990.76
2018-06-16T06:28:27.042Z,990.78
2018-06-16T06:29:27.048Z,990.77
2018-06-16T06:30:27.051Z,990.8
2018-06-16T06:31:27.062Z,990.82
2018-06-16T06:32:27.068Z,990.82
2018-06-16T06:33:27.085Z,990.79
2018-06-16T06:34:27.086Z,990.78
2018-06-16T06:35:27.090Z,990.83
2018-06-16T06:36:27.099Z,990.85
2018-06-16T06:37:27.114Z,990.81
2018-06-16T06:38:27.122Z,990.84
2018-06-16T06:39:27.119Z,990.84
2018-06-16T06:40:27.125Z,990.87
2018-06-16T06:41:27.133Z,990.86
2018-06-16T06:42:27.147Z,990.87
2018-06-16T06:43:27.208Z,990.84
2018-06-16T06:44:27.162Z,990.85
2018-06-16T06:45:27.167Z,990.86
2018-06-16T06:46:27.180Z,990.88
2018-06-16T06:47:27.179Z,990.81
2018-06-16T06:48:27.191Z,990.82
2018-06-16T06:49:27.192Z,990.76
2018-06-16T06:50:27.208Z,990.83
2018-06-16T06:51:27.210Z,990.83
2018-06-16T06:52:27.220Z,990.77
2018-06-16T06:53:27.244Z,990.81
2018-06-16T06:54:27.233Z,990.8
2018-06-16T06:55:27.248Z,990.77
2018-06-16T06:56:27.250Z,990.78
2018-06-16T06:57:27.255Z,990.79
2018-06-16T06:58:27.263Z,990.8
2018-06-16T06:59:27.273Z,990.81
2018-06-16T07:00:27.278Z,990.78
2018-06-16T07:01:27.296Z,990.8
2018-06-16T07:02:27.294Z,990.78
2018-06-16T07:03:27.306Z,990.77
2018-06-16T07:04:27.312Z,990.74
2018-06-16T07:05:27.316Z,990.76
2018-06-16T07:06:27.331Z,990.73
2018-06-16T07:07:27.330Z,990.8
2018-06-16T07:08:27.338Z,990.8
2018-06-16T07:09:27.407Z,990.82
2018-06-16T07:10:27.354Z,990.77
2018-06-16T07:11:27.359Z,990.78
2018-06-16T07:12:27.368Z,990.8
2018-06-16T07:13:27.373Z,990.79
2018-06-16T07:14:27.407Z,990.75
2018-06-16T07:15:27.390Z,990.78
2018-06-16T07:16:27.398Z,990.76
2018-06-16T07:17:27.404Z,990.79
2018-06-16T07:18:27.413Z,990.75
2018-06-16T07:19:27.422Z,990.7
2018-06-16T07:20:27.426Z,990.71
2018-06-16T07:21:27.435Z,990.71
2018-06-16T07:22:27.450Z,990.68
2018-06-16T07:23:27.482Z,990.71
2018-06-16T07:24:27.458Z,990.72
2018-06-16T07:25:27.470Z,990.69
2018-06-16T07:26:27.476Z,990.66
2018-06-16T07:27:27.483Z,990.69
2018-06-16T07:28:27.497Z,990.67
2018-06-16T07:29:27.500Z,990.71
2018-06-16T07:30:27.509Z,990.65
2018-06-16T07:31:27.515Z,990.68
2018-06-16T07:32:27.533Z,990.7
2018-06-16T07:33:27.534Z,990.66
2018-06-16T07:34:27.540Z,990.65
2018-06-16T07:35:27.551Z,990.67
2018-06-16T07:36:27.556Z,990.64
2018-06-16T07:37:27.566Z,990.64
2018-06-16T07:38:27.574Z,990.69
2018-06-16T07:39:27.582Z,990.69
2018-06-16T07:40:27.705Z,990.6
2018-06-16T07:41:27.676Z,990.66
2018-06-16T07:42:27.611Z,990.62
2018-06-16T07:43:27.617Z,990.63
2018-06-16T07:44:27.880Z,990.63
2018-06-16T07:45:27.638Z,990.61
2018-06-16T07:46:27.640Z,990.66
2018-06-16T07:47:27.647Z,990.65
2018-06-16T07:48:27.655Z,990.62
2018-06-16T07:49:27.672Z,990.6
2018-06-16T07:50:27.675Z,990.61
2018-06-16T07:51:27.676Z,990.64
2018-06-16T07:52:27.793Z,990.62
2018-06-16T07:53:27.695Z,990.63
2018-06-16T07:54:27.708Z,990.63
2018-06-16T07:55:27.707Z,990.61
2018-06-16T07:56:27.716Z,990.59
2018-06-16T07:57:27.729Z,990.58
2018-06-16T07:58:27.732Z,990.62
2018-06-16T07:59:27.741Z,990.58
2018-06-16T08:00:27.746Z,990.61
2018-06-16T08:01:27.756Z,990.57
2018-06-16T08:02:27.771Z,990.56
2018-06-16T08:03:27.773Z,990.52
2018-06-16T08:04:27.778Z,990.53
2018-06-16T08:05:27.794Z,990.54
2018-06-16T08:06:27.796Z,990.53
2018-06-16T08:07:27.804Z,990.53
2018-06-16T08:08:27.809Z,990.53
2018-06-16T08:09:27.860Z,990.48
2018-06-16T08:10:27.839Z,990.48
2018-06-16T08:11:27.842Z,990.45
2018-06-16T08:12:27.847Z,990.48
2018-06-16T08:13:27.852Z,990.43
2018-06-16T08:14:28.663Z,990.46
2018-06-16T08:15:27.875Z,990.47
2018-06-16T08:16:27.895Z,990.48
2018-06-16T08:17:27.898Z,990.49
2018-06-16T08:18:27.898Z,990.48
2018-06-16T08:19:27.908Z,990.49
2018-06-16T08:20:27.915Z,990.52
2018-06-16T08:21:27.923Z,990.5
2018-06-16T08:22:27.934Z,990.5
2018-06-16T08:23:27.938Z,990.49
2018-06-16T08:24:27.961Z,990.46
2018-06-16T08:25:27.961Z,990.47
2018-06-16T08:26:27.964Z,990.46
2018-06-16T08:27:27.970Z,990.47
2018-06-16T08:28:27.980Z,990.48
2018-06-16T08:29:27.989Z,990.48
2018-06-16T08:30:27.998Z,990.46
2018-06-16T08:31:28.007Z,990.42
2018-06-16T08:32:28.020Z,990.45
2018-06-16T08:33:28.023Z,990.42
2018-06-16T08:34:28.046Z,990.43
2018-06-16T08:35:28.043Z,990.45
2018-06-16T08:36:28.056Z,990.38
2018-06-16T08:37:28.055Z,990.45
2018-06-16T08:38:28.065Z,990.46
2018-06-16T08:39:28.073Z,990.44
2018-06-16T08:40:28.087Z,990.46
2018-06-16T08:41:28.090Z,990.48
2018-06-16T08:42:28.097Z,990.43
2018-06-16T08:43:28.108Z,990.45
2018-06-16T08:44:28.114Z,990.5
2018-06-16T08:45:28.130Z,990.51
2018-06-16T08:46:28.134Z,990.46
2018-06-16T08:47:28.137Z,990.48
2018-06-16T08:48:28.154Z,990.49
2018-06-16T08:49:28.151Z,990.47
2018-06-16T08:50:28.165Z,990.49
2018-06-16T08:51:28.170Z,990.49
2018-06-16T08:52:28.178Z,990.49
2018-06-16T08:53:28.184Z,990.47
2018-06-16T08:54:28.200Z,990.42
2018-06-16T08:55:28.243Z,990.47
2018-06-16T08:56:28.214Z,990.47
2018-06-16T08:57:28.233Z,990.42
2018-06-16T08:58:28.235Z,990.43
2018-06-16T08:59:28.238Z,990.44
2018-06-16T09:00:28.242Z,990.45
2018-06-16T09:01:28.248Z,990.46
2018-06-16T09:02:28.264Z,990.5
2018-06-16T09:03:28.265Z,990.45
2018-06-16T09:04:28.287Z,990.52
2018-06-16T09:05:28.288Z,990.47
2018-06-16T09:06:28.297Z,990.47
2018-06-16T09:07:28.330Z,990.53
2018-06-16T09:08:28.302Z,990.51
2018-06-16T09:09:28.315Z,990.53
2018-06-16T09:10:28.316Z,990.51
2018-06-16T09:11:28.365Z,990.5
2018-06-16T09:12:28.338Z,990.51
2018-06-16T09:13:28.338Z,990.5
2018-06-16T09:14:28.348Z,990.47
2018-06-16T09:15:28.353Z,990.51
2018-06-16T09:16:28.375Z,990.43
2018-06-16T09:17:28.381Z,990.49
2018-06-16T09:18:28.372Z,990.45
2018-06-16T09:19:28.382Z,990.45
2018-06-16T09:20:28.384Z,990.46
2018-06-16T09:21:28.388Z,990.45
2018-06-16T09:22:28.397Z,990.52
2018-06-16T09:23:28.406Z,990.49
2018-06-16T09:24:28.409Z,990.5
2018-06-16T09:25:28.415Z,990.51
2018-06-16T09:26:28.419Z,990.51
2018-06-16T09:27:28.426Z,990.47
2018-06-16T09:28:28.443Z,990.51
2018-06-16T09:29:28.438Z,990.46
2018-06-16T09:30:28.444Z,990.47
2018-06-16T09:31:28.451Z,990.47
2018-06-16T09:32:28.469Z,990.45
2018-06-16T09:33:28.463Z,990.4
2018-06-16T09:34:28.465Z,990.42
2018-06-16T09:35:28.479Z,990.4
2018-06-16T09:36:28.478Z,990.39
2018-06-16T09:37:28.482Z,990.45
2018-06-16T09:38:28.488Z,990.47
2018-06-16T09:39:28.499Z,990.45
2018-06-16T09:40:28.497Z,990.44
2018-06-16T09:41:28.511Z,990.42
2018-06-16T09:42:28.541Z,990.43
2018-06-16T09:43:28.514Z,990.45
2018-06-16T09:44:28.519Z,990.4
2018-06-16T09:45:28.526Z,990.37
2018-06-16T09:46:28.532Z,990.36
2018-06-16T09:47:28.534Z,990.34
2018-06-16T09:48:28.551Z,990.4
2018-06-16T09:49:28.546Z,990.41
2018-06-16T09:50:28.560Z,990.4
2018-06-16T09:51:28.556Z,990.38
2018-06-16T09:52:28.568Z,990.42
2018-06-16T09:53:28.566Z,990.41
2018-06-16T09:54:28.569Z,990.39
2018-06-16T09:55:28.577Z,990.37
2018-06-16T09:56:28.582Z,990.38
2018-06-16T09:57:28.587Z,990.4
2018-06-16T09:58:28.593Z,990.38
2018-06-16T09:59:28.597Z,990.36
2018-06-16T10:00:28.605Z,990.36
2018-06-16T10:01:28.608Z,990.34
2018-06-16T10:02:28.625Z,990.36
2018-06-16T10:03:28.618Z,990.33
2018-06-16T10:04:28.625Z,990.37
2018-06-16T10:05:28.628Z,990.4
2018-06-16T10:06:28.631Z,990.4
2018-06-16T10:07:28.643Z,990.4
2018-06-16T10:08:28.645Z,990.39
2018-06-16T10:09:28.716Z,990.4
2018-06-16T10:10:28.653Z,990.39
2018-06-16T10:11:28.659Z,990.39
2018-06-16T10:12:28.662Z,990.31
2018-06-16T10:13:28.667Z,990.33
2018-06-16T10:14:28.675Z,990.35
2018-06-16T10:15:28.681Z,990.31
2018-06-16T10:16:28.690Z,990.31
2018-06-16T10:17:28.698Z,990.28
2018-06-16T10:18:28.699Z,990.32
2018-06-16T10:19:28.700Z,990.27
2018-06-16T10:20:28.704Z,990.23
2018-06-16T10:21:28.713Z,990.25
2018-06-16T10:22:28.718Z,990.26
2018-06-16T10:53:44.984Z,990.13
2018-06-16T10:54:44.985Z,990.12
2018-06-16T10:55:44.988Z,990.08
2018-06-16T10:56:44.986Z,990.1
2018-06-16T10:57:44.990Z,990.1
2018-06-16T10:58:44.992Z,990.05
2018-06-16T10:59:44.995Z,990.04
2018-06-16T11:00:44.997Z,990.03
2018-06-16T11:01:45.002Z,990.03
2018-06-16T11:02:45.008Z,990
2018-06-16T11:03:45.015Z,990
2018-06-16T11:04:45.017Z,990.05
2018-06-16T11:05:45.021Z,989.96
2018-06-16T11:06:45.032Z,989.94
2018-06-16T11:07:45.028Z,989.99
2018-06-16T11:08:45.032Z,989.98
2018-06-16T11:09:45.037Z,989.9
2018-06-16T11:10:45.040Z,989.95
2018-06-16T11:11:45.043Z,989.95
2018-06-16T11:12:45.050Z,990.02
2018-06-16T11:13:45.058Z,990
2018-06-16T11:14:45.057Z,989.95
2018-06-16T11:15:45.081Z,989.99
2018-06-16T11:16:45.067Z,989.96
2018-06-16T11:17:45.074Z,989.89
2018-06-16T11:18:45.079Z,989.88
2018-06-16T11:19:45.083Z,989.86
2018-06-16T11:20:45.093Z,989.86
2018-06-16T11:21:45.097Z,989.87
2018-06-16T11:22:45.100Z,989.84
2018-06-16T11:23:45.104Z,989.9
2018-06-16T11:24:45.111Z,989.83
2018-06-16T11:25:45.114Z,989.8
2018-06-16T11:26:45.119Z,989.83
2018-06-16T11:27:45.123Z,989.78
2018-06-16T11:28:45.128Z,989.76
2018-06-16T11:29:45.134Z,989.74
2018-06-16T11:30:45.139Z,989.75
2018-06-16T11:31:45.145Z,989.7
2018-06-16T11:32:45.150Z,989.65
2018-06-16T11:33:45.155Z,989.66
2018-06-16T11:34:45.162Z,989.6
2018-06-16T11:35:45.166Z,989.62
2018-06-16T11:36:45.173Z,989.64
2018-06-16T11:37:45.178Z,989.59
2018-06-16T11:38:45.210Z,989.58
2018-06-16T11:39:45.189Z,989.57
2018-06-16T11:40:45.246Z,989.58
2018-06-16T11:41:45.203Z,989.57
2018-06-16T11:42:45.208Z,989.59
2018-06-16T11:43:45.220Z,989.56
2018-06-16T11:44:45.216Z,989.56
2018-06-16T11:45:45.228Z,989.54
2018-06-16T11:46:45.249Z,989.53
2018-06-16T11:47:45.237Z,989.49
2018-06-16T11:48:45.278Z,989.5
2018-06-16T11:49:45.245Z,989.46
2018-06-16T11:50:45.254Z,989.43
2018-06-16T11:51:45.255Z,989.44
2018-06-16T11:52:45.263Z,989.43
2018-06-16T11:53:45.265Z,989.44
2018-06-16T11:54:45.275Z,989.42
2018-06-16T11:55:45.275Z,989.4
2018-06-16T11:56:45.281Z,989.41
2018-06-16T11:57:45.294Z,989.37
2018-06-16T11:58:45.301Z,989.41
2018-06-16T11:59:45.296Z,989.38
2018-06-16T12:00:45.314Z,989.36
2018-06-16T12:01:45.311Z,989.35
2018-06-16T12:02:45.321Z,989.32
2018-06-16T12:03:45.331Z,989.27
2018-06-16T12:04:45.326Z,989.28
2018-06-16T12:05:45.334Z,989.26
2018-06-16T12:06:45.337Z,989.26
2018-06-16T12:07:45.340Z,989.24
2018-06-16T12:08:45.349Z,989.25
2018-06-16T12:09:45.357Z,989.29
2018-06-16T12:10:45.364Z,989.22
2018-06-16T12:11:45.365Z,989.2
2018-06-16T12:12:45.375Z,989.19
2018-06-16T12:13:45.383Z,989.2
2018-06-16T12:14:45.381Z,989.16
2018-06-16T12:15:45.389Z,989.15
2018-06-16T12:16:45.396Z,989.2
2018-06-16T12:17:45.398Z,989.12
2018-06-16T12:18:46.208Z,989.13
2018-06-16T12:19:45.431Z,989.1
2018-06-16T12:20:45.417Z,989.13
2018-06-16T12:21:45.419Z,989.15
2018-06-16T12:22:45.428Z,989.11
2018-06-16T12:23:45.440Z,989.1
2018-06-16T12:24:45.443Z,989.1
2018-06-16T12:25:45.444Z,989.1
2018-06-16T12:26:45.455Z,989.11
2018-06-16T12:27:45.459Z,989.12
2018-06-16T12:28:45.481Z,989.09
2018-06-16T12:29:45.534Z,989.08
2018-06-16T12:30:45.474Z,989.08
2018-06-16T12:31:45.479Z,989.07
2018-06-16T12:32:45.487Z,989.07
2018-06-16T12:33:45.491Z,989.14
2018-06-16T12:34:45.504Z,989.09
2018-06-16T12:35:45.505Z,989.05
2018-06-16T12:36:45.506Z,989.07
2018-06-16T12:37:45.517Z,989.08
2018-06-16T12:38:45.528Z,989.1
2018-06-16T12:39:45.531Z,989.11
2018-06-16T12:40:45.527Z,989.12
2018-06-16T12:41:45.536Z,989.09
2018-06-16T12:42:45.542Z,989.11
2018-06-16T12:43:45.545Z,989.07
2018-06-16T12:44:45.553Z,989.09
2018-06-16T12:45:45.557Z,989.11
2018-06-16T12:46:45.585Z,989.12
2018-06-16T12:47:45.569Z,989.12
2018-06-16T12:48:45.578Z,989.15
2018-06-16T12:49:45.582Z,989.15
2018-06-16T12:50:45.615Z,989.17
2018-06-16T12:51:45.590Z,989.18
2018-06-16T12:52:45.598Z,989.16
2018-06-16T12:53:45.603Z,989.1
2018-06-16T12:54:45.610Z,989.14
2018-06-16T12:55:45.612Z,989.15
2018-06-16T12:56:45.686Z,989.16
2018-06-16T12:57:45.660Z,989.15
2018-06-16T12:58:45.632Z,989.16
2018-06-16T12:59:45.639Z,989.2
2018-06-16T13:00:45.643Z,989.17
2018-06-16T13:01:45.645Z,989.17